createdAt,value
2018-07-30T00:00:54.808Z,18.70
2018-07-30T00:03:23.403Z,18.70
2018-07-30T00:05:55.772Z,18.60
2018-07-30T00:08:24.359Z,18.60
2018-07-30T00:10:52.875Z,18.60
2018-07-30T00:13:25.308Z,18.70
2018-07-30T00:15:57.007Z,18.60
2018-07-30T00:18:28.836Z,18.60
2018-07-30T00:20:58.034Z,18.60
2018-07-30T00:23:31.502Z,18.50
2018-07-30T00:26:00.111Z,18.40
2018-07-30T00:28:33.300Z,18.30
2018-07-30T00:31:02.021Z,18.30
2018-07-30T00:33:34.176Z,18.30
2018-07-30T00:36:02.749Z,18.30
2018-07-30T00:38:31.276Z,18.30
2018-07-30T00:41:02.745Z,18.30
2018-07-30T00:43:31.259Z,18.30
2018-07-30T00:46:04.600Z,18.20
2018-07-30T00:48:33.198Z,18.10
2018-07-30T00:51:06.358Z,18.10
2018-07-30T00:53:34.928Z,18.10
2018-07-30T00:56:07.200Z,18.10
2018-07-30T00:58:35.829Z,18.00
2018-07-30T01:01:08.074Z,18.00
2018-07-30T01:03:36.664Z,18.00
2018-07-30T01:06:09.079Z,18.00
2018-07-30T01:08:37.666Z,18.00
2018-07-30T01:11:09.918Z,18.00
2018-07-30T01:13:38.505Z,17.90
2018-07-30T01:16:14.367Z,18.00
2018-07-30T01:18:50.244Z,18.00
2018-07-30T01:21:26.983Z,18.00
2018-07-30T01:23:55.637Z,18.10
2018-07-30T01:26:33.357Z,18.00
2018-07-30T01:29:01.940Z,18.00
2018-07-30T01:31:30.518Z,18.00
2018-07-30T01:34:02.022Z,18.00
2018-07-30T01:36:30.599Z,18.00
2018-07-30T01:39:02.882Z,18.10
2018-07-30T01:41:31.459Z,18.10
2018-07-30T01:44:04.655Z,18.00
2018-07-30T01:46:33.231Z,18.00
2018-07-30T01:49:06.421Z,17.90
2018-07-30T01:51:35.011Z,17.80
2018-07-30T01:54:07.280Z,17.90
2018-07-30T01:56:35.838Z,17.90
2018-07-30T01:59:04.384Z,17.80
2018-07-30T02:01:35.907Z,17.80
2018-07-30T02:04:04.900Z,17.90
2018-07-30T02:06:36.889Z,17.90
2018-07-30T02:09:08.633Z,18.00
2018-07-30T02:11:41.340Z,18.10
2018-07-30T02:14:09.980Z,18.10
2018-07-30T02:16:45.773Z,18.20
2018-07-30T02:19:14.371Z,18.20
2018-07-30T02:21:42.950Z,18.20
2018-07-30T02:24:15.324Z,18.30
2018-07-30T02:26:43.928Z,18.40
2018-07-30T02:29:12.497Z,18.30
2018-07-30T02:31:43.977Z,18.40
2018-07-30T02:34:12.618Z,18.50
2018-07-30T02:36:49.292Z,18.50
2018-07-30T02:39:17.836Z,18.50
2018-07-30T02:41:46.401Z,18.40
2018-07-30T02:46:46.487Z,18.40
2018-07-30T02:49:18.789Z,18.50
2018-07-30T02:51:47.392Z,18.50
2018-07-30T02:54:20.587Z,18.50
2018-07-30T02:56:49.166Z,18.50
2018-07-30T02:59:21.559Z,18.60
2018-07-30T03:01:50.187Z,18.60
2018-07-30T03:04:22.404Z,18.60
2018-07-30T03:06:50.964Z,18.60
2018-07-30T03:09:23.315Z,18.60
2018-07-30T03:11:51.895Z,18.60
2018-07-30T03:14:24.112Z,18.60
2018-07-30T03:16:56.878Z,18.60
2018-07-30T03:19:29.595Z,18.60
2018-07-30T03:21:58.208Z,18.70
2018-07-30T03:24:30.450Z,18.80
2018-07-30T03:26:58.993Z,18.80
2018-07-30T03:29:31.323Z,18.80
2018-07-30T03:31:59.890Z,18.90
2018-07-30T03:34:32.184Z,18.80
2018-07-30T03:37:00.725Z,18.90
2018-07-30T03:39:29.282Z,18.90
2018-07-30T03:42:05.305Z,19.00
2018-07-30T03:44:33.910Z,19.00
2018-07-30T03:47:05.239Z,19.00
2018-07-30T03:49:33.813Z,19.00
2018-07-30T03:52:02.402Z,19.10
2018-07-30T03:54:33.863Z,19.10
2018-07-30T03:57:02.474Z,19.20
2018-07-30T03:59:30.981Z,19.20
2018-07-30T04:02:03.418Z,19.20
2018-07-30T04:04:31.933Z,19.30
2018-07-30T04:07:00.481Z,19.30
2018-07-30T04:09:31.914Z,19.40
2018-07-30T04:12:00.439Z,19.40
2018-07-30T04:14:28.902Z,19.40
2018-07-30T04:17:05.063Z,19.50
2018-07-30T04:19:33.597Z,19.50
2018-07-30T04:22:02.097Z,19.50
2018-07-30T04:24:34.623Z,19.50
2018-07-30T04:27:03.142Z,19.50
2018-07-30T04:29:35.471Z,19.50
2018-07-30T04:32:04.032Z,19.60
2018-07-30T04:34:36.334Z,19.60
2018-07-30T04:37:04.882Z,19.60
2018-07-30T04:39:33.390Z,19.60
2018-07-30T04:42:04.971Z,19.70
2018-07-30T04:44:33.487Z,19.70
2018-07-30T04:47:02.002Z,19.80
2018-07-30T04:49:34.428Z,19.80
2018-07-30T04:52:02.985Z,19.80
2018-07-30T04:54:31.524Z,19.80
2018-07-30T04:57:03.084Z,19.80
2018-07-30T04:59:31.557Z,19.90
2018-07-30T05:02:00.059Z,20.00
2018-07-30T05:04:32.597Z,20.00
2018-07-30T05:07:01.087Z,20.00
2018-07-30T05:09:33.491Z,20.10
2018-07-30T05:12:02.115Z,20.20
2018-07-30T05:14:34.319Z,20.20
2018-07-30T05:17:17.466Z,20.30
2018-07-30T05:19:50.649Z,20.40
2018-07-30T05:22:19.225Z,20.50
2018-07-30T05:24:51.495Z,20.70
2018-07-30T05:27:20.420Z,20.70
2018-07-30T05:29:52.351Z,20.80
2018-07-30T05:32:20.948Z,20.90
2018-07-30T05:34:49.549Z,20.90
2018-07-30T05:37:25.905Z,21.00
2018-07-30T05:39:54.565Z,21.10
2018-07-30T05:42:26.355Z,21.20
2018-07-30T05:44:54.982Z,21.20
2018-07-30T05:47:30.912Z,21.20
2018-07-30T05:49:59.608Z,21.30
2018-07-30T05:52:32.623Z,21.40
2018-07-30T05:55:01.494Z,21.50
2018-07-30T05:57:34.412Z,21.50
2018-07-30T06:00:03.204Z,21.60
2018-07-30T06:02:35.318Z,21.70
2018-07-30T06:05:04.345Z,21.70
2018-07-30T06:07:36.194Z,21.80
2018-07-30T06:10:05.743Z,21.90
2018-07-30T06:12:37.990Z,21.90
2018-07-30T06:15:07.399Z,22.00
2018-07-30T06:18:13.388Z,22.00
2018-07-30T06:20:41.962Z,22.00
2018-07-30T06:23:14.211Z,22.00
2018-07-30T06:25:42.851Z,22.20
2018-07-30T06:28:15.047Z,22.20
2018-07-30T06:30:43.648Z,22.30
2018-07-30T06:33:16.000Z,22.40
2018-07-30T06:35:44.924Z,22.40
2018-07-30T06:38:17.787Z,22.40
2018-07-30T06:40:46.388Z,22.50
2018-07-30T06:43:19.591Z,22.60
2018-07-30T06:45:48.178Z,22.60
2018-07-30T06:48:20.377Z,22.70
2018-07-30T06:50:48.960Z,22.80
2018-07-30T06:53:21.359Z,22.80
2018-07-30T06:58:45.835Z,23.00
2018-07-30T07:01:14.500Z,23.10
2018-07-30T07:03:47.574Z,23.20
2018-07-30T07:06:17.030Z,23.40
2018-07-30T07:08:52.903Z,23.30
2018-07-30T07:11:21.378Z,23.20
2018-07-30T07:13:53.788Z,23.40
2018-07-30T07:16:22.340Z,23.50
2018-07-30T07:18:57.329Z,23.60
2018-07-30T07:21:25.842Z,23.60
2018-07-30T07:23:58.240Z,23.50
2018-07-30T07:26:26.674Z,23.50
2018-07-30T07:28:59.118Z,23.50
2018-07-30T07:31:27.628Z,23.50
2018-07-30T07:33:56.253Z,23.70
2018-07-30T07:36:28.686Z,23.70
2018-07-30T07:38:57.127Z,23.60
2018-07-30T07:41:29.465Z,23.80
2018-07-30T07:43:57.917Z,23.80
2018-07-30T07:46:26.540Z,23.90
2018-07-30T07:48:58.069Z,23.90
2018-07-30T07:51:26.577Z,24.10
2018-07-30T07:53:55.115Z,24.10
2018-07-30T07:56:27.631Z,24.30
2018-07-30T07:58:56.133Z,24.40
2018-07-30T08:01:28.468Z,24.40
2018-07-30T08:03:56.931Z,24.50
2018-07-30T08:06:25.503Z,24.90
2018-07-30T08:08:57.092Z,25.20
2018-07-30T08:11:25.577Z,25.40
2018-07-30T08:13:54.213Z,25.70
2018-07-30T08:16:26.578Z,25.50
2018-07-30T08:19:02.321Z,26.00
2018-07-30T08:21:35.733Z,26.40
2018-07-30T08:24:04.287Z,26.60
2018-07-30T08:26:36.626Z,26.90
2018-07-30T08:29:05.422Z,27.40
2018-07-30T08:31:37.415Z,27.80
2018-07-30T08:34:06.482Z,27.90
2018-07-30T08:36:38.242Z,28.00
2018-07-30T08:39:08.907Z,28.30
2018-07-30T08:44:09.595Z,28.40
2018-07-30T08:46:38.155Z,28.60
2018-07-30T08:49:09.731Z,29.20
2018-07-30T08:51:38.260Z,29.30
2018-07-30T08:54:10.524Z,29.70
2018-07-30T08:56:39.095Z,29.50
2018-07-30T08:59:11.317Z,29.70
2018-07-30T09:01:40.677Z,30.10
2018-07-30T09:04:12.268Z,30.20
2018-07-30T09:06:40.853Z,30.60
2018-07-30T09:09:13.953Z,30.70
2018-07-30T09:11:42.538Z,30.60
2018-07-30T09:14:11.112Z,30.40
2018-07-30T09:16:42.651Z,30.70
2018-07-30T09:19:15.385Z,31.00
2018-07-30T09:21:50.314Z,31.10
2018-07-30T09:24:21.634Z,31.10
2018-07-30T09:26:57.354Z,31.70
2018-07-30T09:29:31.170Z,31.80
2018-07-30T09:32:07.507Z,31.20
2018-07-30T09:34:38.445Z,31.50
2018-07-30T09:37:10.638Z,31.40
2018-07-30T09:39:39.287Z,31.70
2018-07-30T09:42:11.503Z,31.60
2018-07-30T09:44:40.187Z,31.40
2018-07-30T09:47:12.340Z,32.10
2018-07-30T09:49:40.914Z,32.70
2018-07-30T09:52:13.208Z,33.00
2018-07-30T09:54:41.816Z,33.00
2018-07-30T09:57:14.071Z,33.20
2018-07-30T09:59:43.523Z,33.60
2018-07-30T10:02:15.874Z,33.70
2018-07-30T10:04:44.902Z,33.50
2018-07-30T10:07:18.573Z,33.30
2018-07-30T10:09:47.113Z,33.00
2018-07-30T10:12:23.095Z,33.60
2018-07-30T10:14:51.620Z,33.70
2018-07-30T10:17:23.035Z,34.40
2018-07-30T10:19:54.823Z,33.50
2018-07-30T10:22:27.589Z,33.70
2018-07-30T10:24:56.200Z,33.70
2018-07-30T10:27:28.463Z,34.10
2018-07-30T10:29:57.058Z,34.20
2018-07-30T10:32:29.323Z,34.90
2018-07-30T10:34:57.930Z,34.80
2018-07-30T10:37:30.159Z,34.50
2018-07-30T10:39:58.784Z,35.00
2018-07-30T10:42:27.351Z,34.60
2018-07-30T10:45:00.653Z,35.00
2018-07-30T10:47:29.330Z,34.90
2018-07-30T10:50:01.477Z,35.00
2018-07-30T10:52:30.127Z,34.60
2018-07-30T10:55:02.883Z,34.90
2018-07-30T10:57:31.451Z,34.50
2018-07-30T11:00:03.386Z,34.90
2018-07-30T11:02:32.124Z,35.10
2018-07-30T11:05:04.183Z,34.40
2018-07-30T11:07:33.158Z,35.00
2018-07-30T11:10:05.913Z,34.70
2018-07-30T11:12:34.545Z,35.00
2018-07-30T11:15:07.774Z,35.40
2018-07-30T11:17:36.351Z,35.60
2018-07-30T11:20:12.212Z,36.00
2018-07-30T11:22:40.797Z,36.40
2018-07-30T11:25:09.256Z,36.40
2018-07-30T11:27:41.736Z,36.10
2018-07-30T11:30:10.382Z,36.00
2018-07-30T11:32:42.600Z,35.90
2018-07-30T11:35:11.186Z,36.30
2018-07-30T11:37:43.446Z,35.00
2018-07-30T11:40:12.065Z,35.30
2018-07-30T11:42:41.063Z,35.20
2018-07-30T11:45:13.927Z,36.00
2018-07-30T11:47:42.516Z,36.00
2018-07-30T11:50:15.702Z,36.20
2018-07-30T11:52:44.319Z,35.80
2018-07-30T11:55:16.576Z,35.90
2018-07-30T11:57:45.398Z,34.80
2018-07-30T12:00:17.450Z,35.00
2018-07-30T12:02:54.924Z,35.80
2018-07-30T12:05:30.050Z,35.90
2018-07-30T12:07:58.652Z,35.10
2018-07-30T12:10:27.235Z,35.50
2018-07-30T12:12:58.695Z,35.00
2018-07-30T12:15:27.269Z,35.00
2018-07-30T12:17:55.839Z,35.50
2018-07-30T12:20:31.829Z,35.30
2018-07-30T12:23:00.484Z,35.80
2018-07-30T12:25:32.655Z,36.30
2018-07-30T12:28:01.167Z,36.30
2018-07-30T12:30:29.870Z,36.50
2018-07-30T12:33:02.697Z,35.50
2018-07-30T12:35:31.702Z,36.00
2018-07-30T12:38:05.026Z,36.00
2018-07-30T12:45:42.395Z,36.40
2018-07-30T12:48:14.848Z,36.30
2018-07-30T12:50:43.408Z,35.80
2018-07-30T12:53:15.725Z,35.60
2018-07-30T12:55:45.940Z,35.70
2018-07-30T12:58:18.953Z,35.70
2018-07-30T13:00:47.496Z,36.20
2018-07-30T13:03:19.344Z,36.60
2018-07-30T13:05:47.878Z,36.50
2018-07-30T13:08:20.164Z,36.30
2018-07-30T13:10:49.106Z,35.90
2018-07-30T13:13:21.948Z,35.90
2018-07-30T13:15:50.657Z,35.90
2018-07-30T13:18:26.376Z,35.90
2018-07-30T13:20:59.244Z,36.60
2018-07-30T13:23:31.849Z,35.40
2018-07-30T13:26:00.411Z,35.60
2018-07-30T13:28:32.785Z,35.30
2018-07-30T13:31:01.380Z,34.40
2018-07-30T13:33:33.576Z,35.20
2018-07-30T13:36:02.036Z,35.40
2018-07-30T13:38:30.768Z,35.60
2018-07-30T13:41:03.090Z,35.40
2018-07-30T13:43:31.922Z,35.30
2018-07-30T13:46:04.927Z,34.50
2018-07-30T13:48:33.411Z,34.80
2018-07-30T13:51:05.755Z,35.30
2018-07-30T13:53:34.246Z,35.50
2018-07-30T13:56:06.670Z,35.50
2018-07-30T13:58:35.161Z,35.00
2018-07-30T14:01:03.709Z,35.20
2018-07-30T14:03:35.295Z,35.30
2018-07-30T14:06:03.839Z,35.20
2018-07-30T14:08:32.397Z,34.60
2018-07-30T14:11:04.742Z,34.50
2018-07-30T14:13:33.228Z,34.80
2018-07-30T14:16:01.717Z,34.60
2018-07-30T14:18:34.284Z,34.20
2018-07-30T14:21:07.547Z,34.10
2018-07-30T14:23:39.747Z,33.50
2018-07-30T14:26:08.228Z,34.00
2018-07-30T14:28:36.692Z,34.10
2018-07-30T14:31:08.291Z,33.70
2018-07-30T14:33:36.759Z,34.00
2018-07-30T14:36:05.300Z,33.90
2018-07-30T14:38:37.839Z,34.50
2018-07-30T14:41:06.446Z,34.90
2018-07-30T14:43:34.909Z,34.90
2018-07-30T14:46:38.981Z,35.10
2018-07-30T14:49:07.485Z,35.60
2018-07-30T14:51:40.016Z,34.90
2018-07-30T14:54:08.475Z,34.60
2018-07-30T14:56:40.770Z,34.20
2018-07-30T14:59:09.369Z,33.90
2018-07-30T15:01:37.903Z,33.60
2018-07-30T15:04:09.372Z,33.20
2018-07-30T15:06:37.984Z,32.80
2018-07-30T15:09:13.840Z,33.10
2018-07-30T15:11:42.341Z,32.30
2018-07-30T15:14:14.761Z,32.70
2018-07-30T15:16:43.300Z,33.20
2018-07-30T15:19:11.912Z,33.60
2018-07-30T15:21:47.846Z,33.20
2018-07-30T15:24:16.348Z,33.50
2018-07-30T15:26:48.766Z,33.30
2018-07-30T15:29:17.227Z,32.80
2018-07-30T15:31:45.707Z,32.50
2018-07-30T15:34:17.380Z,32.20
2018-07-30T15:36:45.858Z,32.30
2018-07-30T15:39:14.348Z,32.10
2018-07-30T15:41:46.945Z,31.90
2018-07-30T15:44:16.689Z,32.00
2018-07-30T15:46:48.674Z,32.00
2018-07-30T15:49:17.089Z,32.00
2018-07-30T15:51:45.568Z,31.90
2018-07-30T15:54:17.234Z,31.80
2018-07-30T15:56:45.687Z,31.60
2018-07-30T15:59:19.004Z,31.40
2018-07-30T16:01:47.531Z,31.30
2018-07-30T16:04:20.001Z,31.20
2018-07-30T16:06:48.476Z,31.20
2018-07-30T16:09:20.843Z,31.10
2018-07-30T16:11:49.400Z,31.10
2018-07-30T16:14:17.877Z,30.80
2018-07-30T16:16:49.358Z,30.80
2018-07-30T16:19:17.809Z,30.70
2018-07-30T16:21:53.926Z,30.80
2018-07-30T16:24:22.398Z,30.70
2018-07-30T16:26:54.766Z,30.50
2018-07-30T16:29:23.248Z,30.40
2018-07-30T16:31:51.729Z,30.30
2018-07-30T16:34:23.421Z,30.20
2018-07-30T16:36:51.873Z,30.20
2018-07-30T16:39:20.372Z,30.20
2018-07-30T16:41:52.997Z,30.20
2018-07-30T16:44:21.894Z,30.10
2018-07-30T16:46:53.843Z,30.10
2018-07-30T16:49:22.347Z,30.00
2018-07-30T16:51:54.617Z,30.00
2018-07-30T16:54:23.113Z,29.90
2018-07-30T16:56:51.610Z,29.80
2018-07-30T16:59:23.192Z,29.70
2018-07-30T17:01:51.655Z,29.60
2018-07-30T17:04:24.962Z,29.70
2018-07-30T17:06:53.427Z,29.60
2018-07-30T17:09:25.962Z,29.50
2018-07-30T17:11:54.479Z,29.40
2018-07-30T17:14:26.817Z,29.30
2018-07-30T17:16:55.300Z,29.30
2018-07-30T17:19:23.844Z,29.30
2018-07-30T17:21:59.966Z,29.30
2018-07-30T17:24:28.456Z,29.20
2018-07-30T17:27:00.870Z,29.20
2018-07-30T17:29:29.381Z,29.10
2018-07-30T17:31:57.890Z,29.10
2018-07-30T17:34:29.451Z,29.00
2018-07-30T17:36:57.962Z,28.90
2018-07-30T17:39:26.477Z,28.90
2018-07-30T17:41:58.927Z,28.80
2018-07-30T17:44:27.464Z,28.70
2018-07-30T17:46:55.952Z,28.60
2018-07-30T17:49:31.089Z,28.50
2018-07-30T17:51:59.548Z,28.40
2018-07-30T17:54:32.001Z,28.40
2018-07-30T17:57:00.517Z,28.30
2018-07-30T17:59:32.918Z,28.30
2018-07-30T18:02:02.057Z,28.30
2018-07-30T18:04:33.708Z,28.10
2018-07-30T18:07:02.241Z,28.00
2018-07-30T18:09:30.712Z,27.90
2018-07-30T18:12:02.309Z,27.80
2018-07-30T18:14:33.703Z,27.80
2018-07-30T18:17:05.929Z,27.80
2018-07-30T18:19:34.386Z,27.60
2018-07-30T18:22:10.405Z,27.40
2018-07-30T18:24:39.006Z,27.30
2018-07-30T18:27:07.593Z,27.20
2018-07-30T18:29:43.233Z,27.20
2018-07-30T18:32:19.108Z,27.10
2018-07-30T18:34:47.642Z,27.10
2018-07-30T18:37:19.419Z,27.00
2018-07-30T18:39:47.933Z,27.00
2018-07-30T18:42:16.397Z,26.90
2018-07-30T18:44:48.955Z,26.80
2018-07-30T18:47:17.526Z,26.60
2018-07-30T18:49:45.989Z,26.50
2018-07-30T18:52:17.603Z,26.40
2018-07-30T18:54:46.137Z,26.40
2018-07-30T18:57:14.672Z,26.30
2018-07-30T18:59:47.036Z,26.10
2018-07-30T19:02:15.594Z,26.00
2018-07-30T19:04:48.016Z,25.90
2018-07-30T19:07:16.551Z,25.80
2018-07-30T19:09:48.751Z,25.70
2018-07-30T19:12:17.342Z,25.60
2018-07-30T19:14:45.828Z,25.50
2018-07-30T19:17:17.454Z,25.40
2018-07-30T19:19:45.980Z,25.40
2018-07-30T19:22:21.914Z,25.40
2018-07-30T19:24:50.444Z,25.30
2018-07-30T19:27:22.861Z,25.20
2018-07-30T19:29:51.344Z,25.20
2018-07-30T19:32:23.951Z,25.00
2018-07-30T19:34:52.435Z,25.00
2018-07-30T19:37:24.535Z,24.90
2018-07-30T19:39:53.474Z,24.80
2018-07-30T19:42:25.493Z,24.70
2018-07-30T19:44:54.030Z,24.60
2018-07-30T19:47:22.516Z,24.50
2018-07-30T19:49:54.896Z,24.50
2018-07-30T19:52:23.375Z,24.40
2018-07-30T19:54:51.809Z,24.30
2018-07-30T19:57:24.557Z,24.10
2018-07-30T19:59:53.031Z,23.90
2018-07-30T20:02:25.362Z,23.70
2018-07-30T20:04:53.820Z,23.50
2018-07-30T20:07:22.268Z,23.40
2018-07-30T20:09:54.035Z,23.40
2018-07-30T20:12:22.543Z,23.30
2018-07-30T20:14:51.067Z,23.30
2018-07-30T20:17:22.548Z,23.20
2018-07-30T20:19:51.024Z,23.10
2018-07-30T20:22:27.013Z,23.00
2018-07-30T20:24:55.688Z,23.00
2018-07-30T20:27:27.967Z,22.90
2018-07-30T20:29:56.555Z,22.80
2018-07-30T20:32:25.043Z,22.80
2018-07-30T20:34:56.571Z,22.70
2018-07-30T20:37:25.132Z,22.60
2018-07-30T20:39:53.605Z,22.50
2018-07-30T20:42:26.009Z,22.60
2018-07-30T20:44:54.564Z,22.70
2018-07-30T20:47:26.890Z,22.70
2018-07-30T20:49:55.433Z,22.60
2018-07-30T20:52:23.926Z,22.60
2018-07-30T20:54:55.468Z,22.50
2018-07-30T20:57:23.975Z,22.60
2018-07-30T20:59:52.554Z,22.50
2018-07-30T21:02:25.064Z,22.50
2018-07-30T21:04:53.546Z,22.40
2018-07-30T21:07:25.917Z,22.50
2018-07-30T21:09:54.458Z,22.50
2018-07-30T21:14:55.197Z,22.50
2018-07-30T21:17:23.782Z,22.50
2018-07-30T21:19:56.335Z,22.50
2018-07-30T21:22:28.068Z,22.50
2018-07-30T21:24:59.821Z,22.50
2018-07-30T21:27:28.328Z,22.50
2018-07-30T21:29:56.823Z,22.60
2018-07-30T21:32:28.479Z,22.60
2018-07-30T21:34:56.945Z,22.50
2018-07-30T21:37:25.531Z,22.50
2018-07-30T21:39:58.022Z,22.40
2018-07-30T21:42:26.500Z,22.40
2018-07-30T21:44:55.005Z,22.40
2018-07-30T21:47:26.645Z,22.30
2018-07-30T21:49:55.063Z,22.20
2018-07-30T21:52:23.510Z,22.30
2018-07-30T21:54:56.113Z,22.20
2018-07-30T21:57:24.605Z,22.10
2018-07-30T21:59:56.906Z,22.00
2018-07-30T22:02:25.724Z,22.00
2018-07-30T22:04:57.784Z,21.90
2018-07-30T22:07:26.268Z,21.90
2018-07-30T22:09:58.696Z,21.80
2018-07-30T22:12:27.186Z,21.70
2018-07-30T22:14:55.647Z,21.70
2018-07-30T22:17:28.183Z,21.70
2018-07-30T22:19:56.701Z,21.70
2018-07-30T22:22:32.683Z,21.70
2018-07-30T22:25:01.206Z,21.70
2018-07-30T22:27:29.795Z,21.70
2018-07-30T22:30:03.145Z,21.60
2018-07-30T22:32:31.624Z,21.60
2018-07-30T22:35:04.020Z,21.60
2018-07-30T22:40:00.666Z,21.60
2018-07-30T22:42:32.663Z,21.50
2018-07-30T22:45:01.155Z,21.40
2018-07-30T22:47:40.775Z,21.30
2018-07-30T22:50:13.811Z,21.30
2018-07-30T22:52:46.145Z,21.20
2018-07-30T22:55:14.614Z,21.20
2018-07-30T22:57:46.992Z,21.20
2018-07-30T23:00:15.557Z,21.10
2018-07-30T23:02:44.064Z,21.10
2018-07-30T23:05:15.581Z,21.10
2018-07-30T23:07:44.149Z,21.00
2018-07-30T23:10:12.736Z,21.00
2018-07-30T23:12:45.182Z,20.90
2018-07-30T23:15:13.696Z,20.80
2018-07-30T23:17:46.039Z,20.70
2018-07-30T23:20:14.540Z,20.70
2018-07-30T23:22:50.472Z,20.70
2018-07-30T23:25:18.978Z,20.70
2018-07-30T23:27:47.486Z,20.60
2018-07-30T23:30:20.040Z,20.70
2018-07-30T23:32:48.536Z,20.60
2018-07-30T23:35:17.010Z,20.60
2018-07-30T23:37:48.647Z,20.60
2018-07-30T23:40:17.119Z,20.50
2018-07-30T23:42:45.634Z,20.50
2018-07-30T23:45:21.788Z,20.40
2018-07-30T23:50:21.838Z,20.30
2018-07-30T23:52:50.694Z,20.30
2018-07-30T23:55:22.739Z,20.30
2018-07-30T23:57:51.268Z,20.30
